Time;durP1;ratioP1;P1;durP2;ratioP2;P2;SDS_P1;SDS_P2;PMS_P1;PMS_P2;Temp;Humidity;BMP_temperature;BMP_pressure;BME280_temperature;BME280_humidity;BME280_pressure;Samples;Min_cycle;Max_cycle;Signal;HPM_P1;HPM_P2
2023/09/26 00:00:08;;;;;;;44.23;41.67;;;12.80;94.90;;;;;;5007594;28;20053;-70
2023/09/26 00:02:35;;;;;;;38.07;35.40;;;12.80;95.00;;;;;;5003587;28;20085;-70
2023/09/26 00:05:03;;;;;;;27.07;24.77;;;12.80;95.20;;;;;;5007966;28;20312;-70
2023/09/26 00:07:29;;;;;;;44.73;42.00;;;12.80;95.10;;;;;;5007238;28;20329;-70
2023/09/26 00:09:56;;;;;;;38.60;36.00;;;12.80;95.10;;;;;;5008168;28;20299;-70
2023/09/26 00:12:22;;;;;;;35.40;33.00;;;12.80;95.20;;;;;;4991707;28;20042;-70
2023/09/26 00:14:47;;;;;;;40.43;37.67;;;12.80;95.30;;;;;;5007500;28;20292;-70
2023/09/26 00:17:14;;;;;;;34.90;32.53;;;12.80;95.40;;;;;;4995566;28;20447;-70
2023/09/26 00:19:40;;;;;;;46.53;43.63;;;12.80;95.40;;;;;;4999159;28;20049;-70
2023/09/26 00:22:06;;;;;;;30.30;28.00;;;12.90;95.50;;;;;;5011127;28;20364;-70
2023/09/26 00:24:32;;;;;;;45.00;42.30;;;12.80;95.60;;;;;;5012250;28;20116;-70
2023/09/26 00:26:58;;;;;;;46.57;43.57;;;12.90;95.80;;;;;;5017026;28;20035;-70
2023/09/26 00:29:24;;;;;;;46.43;43.87;;;12.90;95.80;;;;;;5018095;28;20033;-70
2023/09/26 00:31:53;;;;;;;44.97;42.30;;;12.90;95.90;;;;;;5012809;28;20621;-70
2023/09/26 00:34:19;;;;;;;32.43;29.77;;;13.00;95.90;;;;;;5009990;28;20072;-70
2023/09/26 00:36:45;;;;;;;34.43;31.93;;;13.10;96.10;;;;;;5007566;28;20928;-70
2023/09/26 00:39:11;;;;;;;32.60;30.47;;;13.10;96.10;;;;;;4992312;28;20280;-70
2023/09/26 00:41:38;;;;;;;45.50;42.50;;;13.10;96.20;;;;;;4993349;28;20494;-70
2023/09/26 00:44:06;;;;;;;35.70;32.93;;;13.10;96.50;;;;;;5001684;28;20358;-70
2023/09/26 00:46:33;;;;;;;48.10;45.30;;;13.10;96.50;;;;;;5006197;28;20652;-71
2023/09/26 00:49:00;;;;;;;41.43;38.83;;;13.10;96.50;;;;;;5008229;28;20281;-70
2023/09/26 00:51:26;;;;;;;32.67;30.00;;;13.10;96.30;;;;;;4999454;28;20326;-70
2023/09/26 00:53:53;;;;;;;36.30;33.90;;;13.10;96.50;;;;;;5011301;28;20318;-70
2023/09/26 00:56:19;;;;;;;30.70;28.50;;;13.10;96.50;;;;;;5002819;28;20289;-70
2023/09/26 00:58:45;;;;;;;39.60;36.93;;;13.10;96.60;;;;;;5004644;28;20288;-70
2023/09/26 01:01:11;;;;;;;32.63;30.23;;;13.00;96.60;;;;;;5010733;28;20304;-70
2023/09/26 01:03:38;;;;;;;37.07;34.57;;;13.00;96.40;;;;;;5005448;28;20309;-70
2023/09/26 01:06:04;;;;;;;35.17;32.87;;;13.00;96.40;;;;;;4993592;28;20065;-70
2023/09/26 01:08:30;;;;;;;39.03;36.53;;;12.90;96.30;;;;;;5006446;28;20428;-70
2023/09/26 01:10:58;;;;;;;39.13;36.80;;;12.90;96.50;;;;;;5005531;28;20276;-70
2023/09/26 01:13:24;;;;;;;40.47;38.00;;;12.90;96.50;;;;;;5010605;28;20288;-70
2023/09/26 01:15:50;;;;;;;41.97;39.37;;;12.80;96.60;;;;;;4995375;28;20285;-70
2023/09/26 01:18:17;;;;;;;37.47;35.07;;;12.80;96.70;;;;;;4994001;28;20328;-70
2023/09/26 01:20:44;;;;;;;43.97;41.27;;;12.80;96.70;;;;;;5003827;28;20277;-70
2023/09/26 01:23:14;;;;;;;37.67;35.37;;;12.70;96.70;;;;;;5009871;28;20645;-70
2023/09/26 01:25:40;;;;;;;36.73;34.43;;;12.70;96.70;;;;;;5018275;28;20795;-70
2023/09/26 01:28:08;;;;;;;40.47;37.87;;;12.60;96.70;;;;;;5002720;28;20347;-70
2023/09/26 01:30:34;;;;;;;39.50;36.93;;;12.60;96.60;;;;;;4998318;28;20363;-70
2023/09/26 01:33:02;;;;;;;43.00;40.10;;;12.60;96.90;;;;;;5020086;28;20756;-70
2023/09/26 01:35:28;;;;;;;34.07;31.27;;;12.50;97.10;;;;;;5008142;28;20304;-70
2023/09/26 01:37:54;;;;;;;29.00;26.50;;;12.50;97.20;;;;;;5009006;28;20281;-70
2023/09/26 01:40:20;;;;;;;31.83;29.13;;;12.50;97.10;;;;;;5010132;28;20052;-70
2023/09/26 01:42:45;;;;;;;30.87;28.37;;;12.50;97.20;;;;;;5009004;28;20375;-70
2023/09/26 01:45:11;;;;;;;32.93;30.37;;;12.50;97.10;;;;;;5007813;28;20074;-70
2023/09/26 01:47:42;;;;;;;39.50;36.67;;;12.50;97.20;;;;;;4991363;28;20034;-70
2023/09/26 01:50:08;;;;;;;41.33;38.37;;;12.50;97.20;;;;;;5007652;28;20745;-70
2023/09/26 01:52:35;;;;;;;34.17;31.67;;;12.50;97.20;;;;;;4983852;28;20281;-70
2023/09/26 01:55:12;;;;;;;39.60;37.00;;;12.50;97.30;;;;;;5004751;28;20277;-70
2023/09/26 01:57:38;;;;;;;39.43;36.77;;;12.50;97.20;;;;;;4994143;28;20694;-70
2023/09/26 02:00:11;;;;;;;39.13;36.43;;;12.50;97.40;;;;;;5011015;28;20380;-70
2023/09/26 02:02:42;;;;;;;50.50;47.33;;;12.40;97.50;;;;;;5006946;28;20051;-70
2023/09/26 02:05:18;;;;;;;43.60;40.40;;;12.40;97.40;;;;;;4996795;28;20354;-70
2023/09/26 02:07:45;;;;;;;34.97;32.57;;;12.40;97.50;;;;;;5004530;28;20692;-70
2023/09/26 02:10:11;;;;;;;32.27;29.73;;;12.40;97.50;;;;;;5007039;28;20367;-70
2023/09/26 02:12:39;;;;;;;35.77;33.03;;;12.40;97.50;;;;;;5000656;28;20360;-70
2023/09/26 02:15:08;;;;;;;35.37;32.63;;;12.40;97.60;;;;;;4994953;28;20081;-70
2023/09/26 02:17:36;;;;;;;31.27;28.60;;;12.40;97.60;;;;;;5011789;28;20289;-70
2023/09/26 02:20:08;;;;;;;29.43;27.30;;;12.40;97.40;;;;;;4993488;28;20321;-70
2023/09/26 02:22:35;;;;;;;37.10;34.30;;;12.40;97.40;;;;;;5000242;28;20300;-70
2023/09/26 02:25:01;;;;;;;42.93;40.00;;;12.30;97.30;;;;;;5003807;28;20348;-70
2023/09/26 02:27:26;;;;;;;35.90;33.37;;;12.30;97.50;;;;;;5005448;28;20304;-70
2023/09/26 02:29:52;;;;;;;40.07;37.03;;;12.30;97.40;;;;;;5015755;28;20123;-70
2023/09/26 02:32:18;;;;;;;41.00;37.93;;;12.20;97.50;;;;;;4992394;28;20514;-70
2023/09/26 02:34:44;;;;;;;33.00;30.30;;;12.20;97.60;;;;;;5017253;28;20057;-70
2023/09/26 02:37:10;;;;;;;36.67;34.00;;;12.20;97.60;;;;;;4996297;28;20065;-70
2023/09/26 02:39:36;;;;;;;43.13;40.27;;;12.20;97.60;;;;;;5000554;28;20293;-70
2023/09/26 02:42:02;;;;;;;31.67;29.23;;;12.20;97.60;;;;;;4997186;28;20281;-70
2023/09/26 02:44:28;;;;;;;47.43;43.90;;;12.20;97.70;;;;;;5011984;28;20040;-70
2023/09/26 02:46:54;;;;;;;44.53;41.33;;;12.30;97.80;;;;;;4992929;28;20285;-70
2023/09/26 02:49:20;;;;;;;42.90;39.80;;;12.30;97.90;;;;;;5005329;28;20038;-70
2023/09/26 02:51:46;;;;;;;42.87;39.77;;;12.30;98.00;;;;;;4996380;28;20538;-70
2023/09/26 02:54:12;;;;;;;39.47;36.57;;;12.30;98.20;;;;;;5006756;28;20272;-70
2023/09/26 02:56:38;;;;;;;40.40;37.30;;;12.40;98.30;;;;;;5011430;28;20045;-70
2023/09/26 02:59:03;;;;;;;47.93;44.43;;;12.40;98.40;;;;;;5015894;28;20038;-70
2023/09/26 03:01:29;;;;;;;46.13;42.90;;;12.40;98.40;;;;;;5001318;28;20037;-70
2023/09/26 03:03:55;;;;;;;47.93;44.37;;;12.40;98.40;;;;;;5001247;28;20060;-70
2023/09/26 03:06:21;;;;;;;48.57;45.40;;;12.40;98.20;;;;;;5002969;28;20053;-70
2023/09/26 03:08:47;;;;;;;40.10;36.80;;;12.40;98.20;;;;;;5024343;28;20282;-70
2023/09/26 03:11:12;;;;;;;48.97;45.57;;;12.40;98.30;;;;;;5015797;28;20553;-70
2023/09/26 03:13:38;;;;;;;44.83;41.63;;;12.40;98.20;;;;;;5008511;28;20054;-70
2023/09/26 03:16:07;;;;;;;50.37;46.97;;;12.40;98.20;;;;;;5007364;28;20042;-70
2023/09/26 03:18:32;;;;;;;54.10;50.77;;;12.40;98.30;;;;;;5009855;28;20052;-70
2023/09/26 03:21:04;;;;;;;44.80;41.70;;;12.40;98.40;;;;;;5007596;28;20772;-70
2023/09/26 03:23:30;;;;;;;45.13;42.00;;;12.40;98.50;;;;;;4999475;28;20833;-70
2023/09/26 03:25:56;;;;;;;52.13;48.90;;;12.40;98.40;;;;;;5023317;28;20291;-70
2023/09/26 03:28:21;;;;;;;47.30;44.13;;;12.40;98.40;;;;;;5005094;28;20152;-70
2023/09/26 03:30:47;;;;;;;41.40;38.23;;;12.40;98.50;;;;;;4996765;28;20763;-70
2023/09/26 03:33:13;;;;;;;37.20;34.33;;;12.30;98.60;;;;;;5005507;28;20034;-70
2023/09/26 03:35:39;;;;;;;41.33;38.30;;;12.30;98.60;;;;;;5007545;28;20604;-70
2023/09/26 03:38:04;;;;;;;40.60;37.57;;;12.30;98.50;;;;;;5015681;28;20041;-70
2023/09/26 03:40:31;;;;;;;39.40;36.30;;;12.20;98.40;;;;;;5012494;28;20468;-70
2023/09/26 03:42:56;;;;;;;39.30;35.73;;;12.20;98.40;;;;;;5011957;28;20034;-70
2023/09/26 03:45:24;;;;;;;55.67;51.97;;;12.10;98.40;;;;;;5005948;28;20315;-70
2023/09/26 03:47:50;;;;;;;45.30;42.20;;;12.10;98.50;;;;;;4997868;28;20037;-70
2023/09/26 03:50:15;;;;;;;42.33;39.03;;;12.10;98.60;;;;;;4983713;28;20286;-70
2023/09/26 03:52:41;;;;;;;49.43;46.13;;;12.10;98.50;;;;;;5003826;28;20841;-70
2023/09/26 03:55:07;;;;;;;47.83;44.40;;;12.00;98.60;;;;;;5001132;28;20133;-70
2023/09/26 03:57:33;;;;;;;48.23;44.63;;;12.00;98.60;;;;;;5014885;28;20471;-70
2023/09/26 04:00:00;;;;;;;42.63;39.30;;;12.00;98.70;;;;;;5024446;28;20092;-70
2023/09/26 04:02:25;;;;;;;49.50;45.90;;;12.00;98.80;;;;;;5008454;28;21022;-70
2023/09/26 04:04:51;;;;;;;60.20;56.40;;;11.90;99.00;;;;;;5007248;28;20304;-70
2023/09/26 04:07:17;;;;;;;53.03;49.37;;;12.00;99.00;;;;;;5010391;28;20056;-70
2023/09/26 04:09:42;;;;;;;40.70;37.70;;;11.90;99.10;;;;;;4997402;28;20532;-70
2023/09/26 04:12:09;;;;;;;51.40;47.30;;;11.90;99.20;;;;;;5007175;28;20163;-70
2023/09/26 04:14:34;;;;;;;49.03;45.57;;;11.90;99.20;;;;;;5005962;28;20046;-70
2023/09/26 04:17:00;;;;;;;45.73;42.50;;;12.00;99.30;;;;;;5008397;28;20392;-70
2023/09/26 04:19:26;;;;;;;50.33;46.70;;;11.90;99.30;;;;;;5015199;28;20045;-70
2023/09/26 04:21:55;;;;;;;54.77;50.97;;;12.00;99.20;;;;;;5011924;28;20048;-70
2023/09/26 04:24:21;;;;;;;48.27;44.67;;;11.90;99.20;;;;;;5018774;28;20507;-70
2023/09/26 04:26:46;;;;;;;90.03;84.97;;;12.00;99.30;;;;;;4997046;28;20293;-70
2023/09/26 04:29:13;;;;;;;76.23;71.37;;;12.00;99.40;;;;;;5003827;28;20276;-70
2023/09/26 04:31:39;;;;;;;81.77;76.87;;;12.00;99.50;;;;;;5010538;28;20042;-70
2023/09/26 04:34:05;;;;;;;66.40;62.00;;;12.00;99.70;;;;;;4996960;28;20280;-70
2023/09/26 04:36:31;;;;;;;66.60;62.07;;;12.00;99.80;;;;;;5001661;28;20042;-70
2023/09/26 04:38:57;;;;;;;66.37;62.17;;;12.00;99.70;;;;;;5011666;28;20292;-70
2023/09/26 04:41:23;;;;;;;67.53;63.13;;;12.00;99.80;;;;;;5001931;28;20110;-70
2023/09/26 04:43:48;;;;;;;56.23;52.37;;;12.00;99.70;;;;;;4995735;28;20042;-70
2023/09/26 04:46:15;;;;;;;44.53;40.93;;;12.00;99.70;;;;;;5000373;28;20568;-70
2023/09/26 04:48:43;;;;;;;89.03;83.90;;;12.00;99.70;;;;;;5017426;28;20038;-70
2023/09/26 04:51:11;;;;;;;89.80;84.73;;;12.00;99.80;;;;;;4984424;28;20277;-70
2023/09/26 04:53:37;;;;;;;58.33;54.23;;;11.90;99.80;;;;;;5007131;28;20288;-70
2023/09/26 04:56:04;;;;;;;65.50;61.37;;;11.90;99.90;;;;;;4991037;28;20284;-70
2023/09/26 04:58:30;;;;;;;65.37;61.27;;;11.90;99.90;;;;;;4987550;28;20106;-70
2023/09/26 05:00:57;;;;;;;62.17;58.20;;;11.90;99.90;;;;;;5006581;28;20296;-70
2023/09/26 05:03:22;;;;;;;74.33;69.57;;;11.90;99.90;;;;;;5004920;28;20280;-70
2023/09/26 05:05:49;;;;;;;65.80;61.60;;;11.90;99.90;;;;;;5007214;28;20795;-70
2023/09/26 05:08:15;;;;;;;60.23;56.20;;;11.90;99.90;;;;;;4987887;28;20049;-71
2023/09/26 05:10:41;;;;;;;55.50;51.90;;;11.80;99.90;;;;;;5007165;28;20311;-71
2023/09/26 05:13:07;;;;;;;60.43;56.43;;;11.80;99.90;;;;;;5007129;28;20053;-71
2023/09/26 05:15:34;;;;;;;56.37;52.57;;;11.80;99.90;;;;;;4989967;28;20304;-71
2023/09/26 05:18:01;;;;;;;57.87;54.07;;;11.80;99.90;;;;;;4986874;28;20375;-70
2023/09/26 05:20:26;;;;;;;106.13;100.47;;;11.80;99.90;;;;;;4990882;28;20409;-71
2023/09/26 05:22:52;;;;;;;109.87;104.10;;;11.80;99.90;;;;;;5014683;28;20368;-71
2023/09/26 05:25:18;;;;;;;142.73;135.53;;;11.70;99.70;;;;;;5005143;28;20038;-70
2023/09/26 05:27:44;;;;;;;136.87;130.20;;;11.70;99.90;;;;;;5001129;28;20046;-70
2023/09/26 05:30:11;;;;;;;152.37;145.10;;;11.70;99.90;;;;;;5003013;28;20038;-70
2023/09/26 05:32:37;;;;;;;153.17;146.00;;;11.80;99.90;;;;;;4985319;28;20034;-71
2023/09/26 05:35:06;;;;;;;120.73;114.57;;;11.80;99.90;;;;;;4994281;28;20797;-71
2023/09/26 05:37:32;;;;;;;108.47;102.93;;;11.70;99.90;;;;;;5000485;28;20293;-70
2023/09/26 05:39:58;;;;;;;88.33;83.47;;;11.80;99.90;;;;;;5009190;28;20289;-72
2023/09/26 05:42:24;;;;;;;154.53;147.07;;;11.80;99.90;;;;;;5005635;28;20298;-71
2023/09/26 05:44:49;;;;;;;133.83;127.13;;;11.80;99.90;;;;;;5008321;28;20034;-72
2023/09/26 05:47:15;;;;;;;119.73;113.63;;;11.80;99.90;;;;;;4995052;28;20046;-71
2023/09/26 05:49:41;;;;;;;159.37;151.57;;;11.90;99.90;;;;;;5002015;28;20137;-71
2023/09/26 05:52:06;;;;;;;130.73;124.20;;;12.00;99.90;;;;;;5008177;28;20045;-71
2023/09/26 05:54:33;;;;;;;146.40;139.00;;;12.00;99.90;;;;;;4989778;28;20050;-71
2023/09/26 05:56:59;;;;;;;172.60;164.40;;;12.10;99.80;;;;;;5007752;28;20046;-71
2023/09/26 05:59:25;;;;;;;159.33;151.33;;;12.20;99.90;;;;;;5002345;28;20289;-71
2023/09/26 06:01:51;;;;;;;167.80;159.40;;;12.30;99.80;;;;;;5015755;28;20302;-71
2023/09/26 06:04:16;;;;;;;172.33;164.23;;;12.30;99.70;;;;;;5013591;28;20041;-71
2023/09/26 06:06:42;;;;;;;158.07;150.47;;;12.40;99.60;;;;;;5015344;28;20144;-71
2023/09/26 06:09:08;;;;;;;187.80;179.07;;;12.50;99.60;;;;;;4995016;28;20046;-71
2023/09/26 06:11:34;;;;;;;156.67;149.23;;;12.60;99.50;;;;;;5004021;28;20061;-71
2023/09/26 06:14:00;;;;;;;179.57;171.13;;;12.70;99.50;;;;;;4994021;28;20038;-71
2023/09/26 06:16:25;;;;;;;156.90;149.43;;;12.70;99.30;;;;;;5011041;28;20133;-71
2023/09/26 06:18:52;;;;;;;148.20;140.70;;;12.80;99.20;;;;;;4994115;28;20050;-71
2023/09/26 06:21:19;;;;;;;187.43;178.87;;;12.90;99.20;;;;;;5003020;28;20049;-71
2023/09/26 06:23:46;;;;;;;171.27;163.43;;;12.90;99.00;;;;;;5025821;28;20312;-71
2023/09/26 06:26:12;;;;;;;152.43;144.87;;;13.00;98.90;;;;;;4996805;28;20292;-71
2023/09/26 06:28:37;;;;;;;174.03;165.87;;;13.10;98.80;;;;;;5007089;28;20285;-71
2023/09/26 06:31:05;;;;;;;170.80;162.63;;;13.10;98.80;;;;;;4996695;28;20065;-71
2023/09/26 06:33:31;;;;;;;180.17;171.93;;;13.20;98.70;;;;;;5009189;28;20486;-71
2023/09/26 06:35:57;;;;;;;180.53;172.03;;;13.20;98.70;;;;;;5010583;28;20284;-71
2023/09/26 06:38:23;;;;;;;177.13;168.93;;;13.30;98.70;;;;;;5008288;28;20496;-71
2023/09/26 06:40:59;;;;;;;200.53;191.37;;;13.40;98.70;;;;;;5002531;28;20038;-71
2023/09/26 06:43:24;;;;;;;212.57;202.57;;;13.40;98.60;;;;;;5009189;28;20309;-71
2023/09/26 06:45:50;;;;;;;238.27;227.33;;;13.50;98.40;;;;;;4993979;28;20315;-71
2023/09/26 06:48:16;;;;;;;220.00;210.17;;;13.60;98.40;;;;;;4983950;28;20042;-71
2023/09/26 06:50:43;;;;;;;190.13;181.17;;;13.60;98.20;;;;;;5009129;28;20096;-71
2023/09/26 06:53:09;;;;;;;195.40;186.17;;;13.70;98.10;;;;;;5002817;28;20485;-71
2023/09/26 06:55:39;;;;;;;234.50;223.83;;;13.80;98.00;;;;;;4987154;28;20296;-72
2023/09/26 06:58:05;;;;;;;229.30;219.00;;;13.80;97.80;;;;;;4994349;28;20172;-71
2023/09/26 07:00:31;;;;;;;244.57;233.83;;;13.90;97.80;;;;;;5010102;28;20363;-71
2023/09/26 07:02:56;;;;;;;247.87;236.77;;;13.90;97.70;;;;;;5004119;28;20375;-71
2023/09/26 07:05:23;;;;;;;242.87;232.17;;;14.00;97.60;;;;;;4993299;28;20038;-71
2023/09/26 07:07:49;;;;;;;254.53;243.03;;;14.00;97.60;;;;;;5009697;28;20129;-71
2023/09/26 07:10:14;;;;;;;245.53;234.70;;;14.10;97.50;;;;;;5018054;28;20367;-72
2023/09/26 07:12:40;;;;;;;234.30;224.00;;;14.20;97.40;;;;;;5010762;28;20033;-71
2023/09/26 07:15:10;;;;;;;242.37;231.73;;;14.30;97.30;;;;;;4995737;28;20054;-71
2023/09/26 07:17:35;;;;;;;258.83;247.50;;;14.30;97.30;;;;;;5004449;28;20212;-71
2023/09/26 07:20:01;;;;;;;236.20;225.80;;;14.30;97.00;;;;;;5000228;28;20354;-71
2023/09/26 07:22:27;;;;;;;242.70;232.07;;;14.40;97.00;;;;;;5013708;28;20115;-71
2023/09/26 07:24:52;;;;;;;245.97;234.90;;;14.40;97.00;;;;;;5001785;28;20401;-71
2023/09/26 07:27:19;;;;;;;240.10;229.60;;;14.40;96.90;;;;;;4986630;28;20034;-71
2023/09/26 07:29:46;;;;;;;276.70;264.23;;;14.50;97.00;;;;;;5006633;28;20041;-71
2023/09/26 07:32:12;;;;;;;266.30;254.37;;;14.60;96.90;;;;;;4986358;28;20283;-71
2023/09/26 07:34:37;;;;;;;228.73;218.37;;;14.60;96.90;;;;;;5006958;28;20289;-71
2023/09/26 07:37:03;;;;;;;299.53;286.13;;;14.80;96.80;;;;;;4996310;28;20544;-71
2023/09/26 07:39:29;;;;;;;272.20;260.03;;;14.90;96.80;;;;;;5005993;28;20084;-71
2023/09/26 07:41:54;;;;;;;293.50;280.40;;;14.90;96.60;;;;;;5005447;28;20045;-71
2023/09/26 07:44:20;;;;;;;302.90;289.50;;;15.00;96.30;;;;;;5011728;28;20091;-71
2023/09/26 07:46:46;;;;;;;261.80;250.27;;;15.10;96.20;;;;;;4987047;28;20050;-71
2023/09/26 07:49:12;;;;;;;288.30;275.50;;;15.20;96.00;;;;;;4995982;28;20101;-71
2023/09/26 07:51:38;;;;;;;272.77;260.80;;;15.30;96.00;;;;;;5000984;28;20038;-71
2023/09/26 07:54:04;;;;;;;281.23;268.83;;;15.50;95.80;;;;;;5016195;28;20363;-72
2023/09/26 07:56:30;;;;;;;260.03;248.33;;;15.60;95.50;;;;;;5002647;28;20328;-72
2023/09/26 07:58:55;;;;;;;251.60;240.37;;;15.70;94.80;;;;;;4989015;28;20312;-71
2023/09/26 08:01:21;;;;;;;227.17;217.17;;;15.80;94.30;;;;;;5003173;28;20042;-71
2023/09/26 08:03:47;;;;;;;196.57;187.63;;;15.80;93.90;;;;;;4985194;28;20141;-71
2023/09/26 08:06:13;;;;;;;208.23;199.13;;;15.80;93.80;;;;;;5000091;28;20391;-71
2023/09/26 08:08:39;;;;;;;236.30;225.83;;;15.80;93.60;;;;;;5002569;28;20056;-71
2023/09/26 08:11:11;;;;;;;227.77;217.83;;;15.80;93.40;;;;;;5001246;28;20273;-71
2023/09/26 08:13:38;;;;;;;222.50;212.53;;;15.80;93.50;;;;;;5001199;28;20128;-71
2023/09/26 08:16:04;;;;;;;205.23;195.80;;;15.90;93.70;;;;;;5001563;28;20276;-71
2023/09/26 08:18:30;;;;;;;208.00;198.57;;;16.00;93.10;;;;;;5007322;28;20277;-71
2023/09/26 08:20:57;;;;;;;219.33;209.53;;;16.00;92.80;;;;;;5004781;28;20284;-71
2023/09/26 08:23:28;;;;;;;210.30;200.67;;;16.10;92.90;;;;;;5016021;28;20033;-71
2023/09/26 08:26:00;;;;;;;192.93;184.27;;;16.10;92.40;;;;;;5004532;28;20693;-72
2023/09/26 08:28:25;;;;;;;236.93;226.27;;;16.20;92.30;;;;;;5007470;28;21125;-71
2023/09/26 08:30:56;;;;;;;209.23;199.77;;;16.20;91.90;;;;;;5006326;28;20280;-71
2023/09/26 08:33:23;;;;;;;183.37;175.07;;;16.20;92.00;;;;;;4992332;28;20041;-71
2023/09/26 08:35:50;;;;;;;241.60;230.53;;;16.20;92.10;;;;;;5006703;28;20285;-71
2023/09/26 08:38:16;;;;;;;222.73;212.70;;;16.30;92.20;;;;;;4988410;28;20311;-71
2023/09/26 08:40:43;;;;;;;180.93;172.30;;;16.50;91.90;;;;;;4991763;28;20644;-71
2023/09/26 08:43:12;;;;;;;208.67;198.97;;;16.60;91.20;;;;;;5002676;28;20404;-71
2023/09/26 08:45:39;;;;;;;191.50;182.70;;;16.80;90.50;;;;;;5003871;28;20313;-72
2023/09/26 08:48:05;;;;;;;226.80;216.40;;;16.90;90.70;;;;;;5008989;28;20392;-72
2023/09/26 08:50:31;;;;;;;217.77;207.27;;;17.00;89.80;;;;;;5005461;28;20296;-72
2023/09/26 08:52:59;;;;;;;204.33;194.83;;;17.00;90.00;;;;;;4985694;28;20284;-72
2023/09/26 08:55:27;;;;;;;184.57;176.27;;;17.00;88.40;;;;;;5013937;28;20513;-72
2023/09/26 08:57:54;;;;;;;191.30;182.37;;;16.90;87.60;;;;;;5001794;28;20339;-72
2023/09/26 09:00:21;;;;;;;242.30;231.47;;;16.90;88.50;;;;;;5006581;28;20781;-71
2023/09/26 09:02:48;;;;;;;279.27;266.33;;;16.90;88.60;;;;;;5002965;28;20344;-71
2023/09/26 09:05:19;;;;;;;308.37;294.87;;;17.00;88.80;;;;;;4990676;28;20331;-71
2023/09/26 09:07:46;;;;;;;326.17;311.57;;;17.00;88.50;;;;;;4982421;28;20808;-71
2023/09/26 09:10:13;;;;;;;337.33;322.57;;;17.10;88.80;;;;;;5006737;28;20280;-71
2023/09/26 09:12:41;;;;;;;335.10;320.03;;;17.10;88.10;;;;;;5022898;28;20327;-71
2023/09/26 09:15:16;;;;;;;318.43;304.43;;;17.20;88.30;;;;;;5006286;28;20288;-71
2023/09/26 09:17:43;;;;;;;352.85;337.40;;;17.30;88.20;;;;;;5009814;28;20292;-71
2023/09/26 09:20:10;;;;;;;324.97;310.40;;;17.30;86.60;;;;;;4996329;28;20045;-71
2023/09/26 09:22:36;;;;;;;340.13;324.57;;;17.30;86.60;;;;;;5000276;28;20898;-71
2023/09/26 09:25:02;;;;;;;328.70;314.43;;;17.40;86.40;;;;;;4994330;28;20312;-72
2023/09/26 09:27:29;;;;;;;361.53;345.37;;;17.40;86.20;;;;;;5007038;28;20038;-72
2023/09/26 09:30:12;;;;;;;336.20;321.00;;;17.50;87.20;;;;;;5000003;28;20376;-72
2023/09/26 09:32:44;;;;;;;365.83;349.57;;;17.60;86.90;;;;;;5009800;28;20295;-71
2023/09/26 09:35:11;;;;;;;374.70;357.93;;;17.70;86.20;;;;;;5007621;28;20410;-71
2023/09/26 09:37:37;;;;;;;422.07;402.87;;;17.70;85.70;;;;;;5006788;28;20038;-71
2023/09/26 09:40:05;;;;;;;396.80;379.13;;;17.80;85.40;;;;;;5005743;28;20108;-72
2023/09/26 09:42:30;;;;;;;381.23;364.10;;;17.70;85.40;;;;;;5005359;28;20043;-72
2023/09/26 09:44:56;;;;;;;368.10;351.47;;;17.70;84.70;;;;;;5010235;28;20838;-72
2023/09/26 09:47:23;;;;;;;402.57;384.40;;;17.70;84.80;;;;;;5005921;28;20130;-72
2023/09/26 09:49:51;;;;;;;403.53;385.10;;;17.70;84.90;;;;;;5005141;28;20034;-72
2023/09/26 09:52:19;;;;;;;372.93;356.30;;;17.70;84.40;;;;;;5001088;28;20050;-72
2023/09/26 09:54:46;;;;;;;396.80;379.10;;;17.70;85.10;;;;;;4986237;28;20041;-72
2023/09/26 09:57:15;;;;;;;376.67;359.83;;;17.80;85.00;;;;;;4992577;28;20042;-72
2023/09/26 09:59:42;;;;;;;312.43;298.57;;;17.80;84.90;;;;;;5006973;28;20077;-72
2023/09/26 10:02:11;;;;;;;370.10;353.77;;;17.90;85.00;;;;;;4997343;28;20077;-72
2023/09/26 10:04:37;;;;;;;354.57;338.67;;;18.00;85.00;;;;;;5014381;28;20053;-72
2023/09/26 10:07:04;;;;;;;346.47;331.33;;;18.10;85.30;;;;;;5015174;28;20061;-72
2023/09/26 10:09:31;;;;;;;361.80;345.63;;;18.20;84.90;;;;;;5014423;28;20092;-72
2023/09/26 10:11:58;;;;;;;361.90;346.00;;;18.30;84.00;;;;;;5004919;28;20383;-72
2023/09/26 10:14:25;;;;;;;386.10;368.70;;;18.40;83.70;;;;;;5011326;28;20045;-72
2023/09/26 10:16:54;;;;;;;383.10;366.00;;;18.50;83.80;;;;;;5009666;28;20042;-72
2023/09/26 10:19:23;;;;;;;380.50;363.53;;;18.60;83.50;;;;;;5005575;28;20046;-72
2023/09/26 10:21:48;;;;;;;371.07;354.53;;;18.70;83.50;;;;;;4996376;28;20521;-72
2023/09/26 10:24:17;;;;;;;370.43;353.60;;;18.80;82.70;;;;;;5010288;28;20038;-72
2023/09/26 10:26:44;;;;;;;365.57;349.53;;;18.90;83.10;;;;;;5009382;28;20074;-72
2023/09/26 10:29:30;;;;;;;376.87;359.83;;;19.00;82.70;;;;;;4980078;28;20072;-72
2023/09/26 10:32:04;;;;;;;352.07;336.63;;;19.10;81.90;;;;;;4995840;28;20547;-72
2023/09/26 10:34:35;;;;;;;348.40;333.10;;;19.20;82.50;;;;;;4998169;28;20824;-72
2023/09/26 10:37:02;;;;;;;326.83;312.33;;;19.30;82.20;;;;;;5011137;28;20046;-72
2023/09/26 10:39:40;;;;;;;337.83;322.50;;;19.30;80.20;;;;;;5011205;28;20049;-72
2023/09/26 10:42:14;;;;;;;360.83;345.23;;;19.30;80.70;;;;;;5011712;28;20056;-72
2023/09/26 10:44:44;;;;;;;398.60;380.57;;;19.20;80.20;;;;;;5006355;28;20037;-72
2023/09/26 10:47:12;;;;;;;349.47;334.07;;;19.20;80.30;;;;;;5008236;28;20577;-72
2023/09/26 10:49:38;;;;;;;335.07;320.57;;;19.30;80.40;;;;;;5004994;28;20046;-72
2023/09/26 10:52:08;;;;;;;364.87;348.67;;;19.30;80.10;;;;;;5005096;28;20405;-72
2023/09/26 10:54:36;;;;;;;337.17;322.47;;;19.30;80.00;;;;;;5011295;28;20116;-72
2023/09/26 10:57:02;;;;;;;339.47;324.57;;;19.40;81.00;;;;;;5010035;28;20397;-72
2023/09/26 10:59:31;;;;;;;389.93;372.50;;;19.60;80.30;;;;;;5007507;28;20054;-72
2023/09/26 11:01:58;;;;;;;360.90;345.07;;;19.70;79.90;;;;;;5014865;28;20131;-72
2023/09/26 11:04:29;;;;;;;400.90;383.13;;;19.80;79.60;;;;;;5011112;28;20172;-72
2023/09/26 11:06:56;;;;;;;408.63;390.20;;;19.90;79.10;;;;;;5011713;28;20107;-72
2023/09/26 11:09:22;;;;;;;417.00;398.50;;;20.20;79.00;;;;;;5002775;28;20511;-72
2023/09/26 11:11:48;;;;;;;480.37;458.07;;;20.50;78.60;;;;;;5006766;28;20072;-72
2023/09/26 11:14:15;;;;;;;457.07;435.53;;;21.00;78.40;;;;;;5006112;28;20124;-72
2023/09/26 11:16:41;;;;;;;467.17;445.33;;;21.30;76.80;;;;;;5011693;28;20052;-72
2023/09/26 11:19:09;;;;;;;515.27;490.70;;;21.60;76.20;;;;;;5012320;28;20046;-72
2023/09/26 11:21:36;;;;;;;483.17;460.40;;;21.80;75.30;;;;;;5012241;28;20449;-72
2023/09/26 11:24:21;;;;;;;480.07;457.77;;;21.90;75.10;;;;;;4987999;28;20096;-72
2023/09/26 11:26:48;;;;;;;465.10;443.40;;;22.00;72.10;;;;;;5006833;28;20038;-72
2023/09/26 11:29:15;;;;;;;456.40;435.20;;;22.10;73.40;;;;;;4993671;28;20041;-71
2023/09/26 11:31:43;;;;;;;527.57;502.13;;;22.10;71.50;;;;;;4998658;28;20121;-72
2023/09/26 11:34:09;;;;;;;486.33;463.67;;;22.10;72.60;;;;;;5007584;28;20111;-72
2023/09/26 11:36:34;;;;;;;522.30;496.73;;;22.20;70.50;;;;;;5010310;28;21148;-72
2023/09/26 11:39:00;;;;;;;571.53;543.10;;;22.10;67.90;;;;;;5004502;28;20104;-72
2023/09/26 11:41:26;;;;;;;571.73;543.23;;;22.20;69.30;;;;;;4991016;28;20050;-72
2023/09/26 11:43:52;;;;;;;530.87;505.10;;;22.20;69.80;;;;;;5010456;28;20042;-72
2023/09/26 11:46:19;;;;;;;546.10;520.40;;;22.30;68.90;;;;;;4988173;28;20039;-72
2023/09/26 11:48:48;;;;;;;559.23;530.93;;;22.40;68.70;;;;;;5011258;28;20084;-73
2023/09/26 11:51:13;;;;;;;548.53;521.53;;;22.50;67.80;;;;;;5004715;28;20096;-72
2023/09/26 11:53:40;;;;;;;537.90;512.27;;;22.60;68.50;;;;;;5004332;28;20037;-73
2023/09/26 11:56:10;;;;;;;557.00;529.97;;;22.60;67.90;;;;;;4993914;28;20832;-72
2023/09/26 11:58:39;;;;;;;776.67;730.37;;;22.70;67.00;;;;;;5004463;28;20103;-72
2023/09/26 12:01:05;;;;;;;841.53;788.43;;;22.70;66.50;;;;;;4996995;28;20042;-72
2023/09/26 12:03:31;;;;;;;761.63;716.97;;;22.70;65.80;;;;;;5002179;28;20041;-72
2023/09/26 12:05:56;;;;;;;798.40;751.00;;;22.60;66.20;;;;;;4991126;28;20429;-73
2023/09/26 12:08:22;;;;;;;665.97;630.10;;;22.60;67.00;;;;;;5004838;28;20041;-72
2023/09/26 12:10:48;;;;;;;715.70;675.27;;;22.70;67.80;;;;;;4995239;28;20124;-72
2023/09/26 12:13:13;;;;;;;634.90;600.87;;;22.70;67.50;;;;;;5004132;28;20038;-72